sensor_id;sensor_type;location;lat;lon;timestamp;temperature;humidity
40556;DHT22;26250;45.422;11.100;2023-08-06T08:13:39;26.80;82.80
40556;DHT22;26250;45.422;11.100;2023-08-06T08:16:06;26.80;83.30
40556;DHT22;26250;45.422;11.100;2023-08-06T08:18:33;26.80;83.80
40556;DHT22;26250;45.422;11.100;2023-08-06T08:21:00;26.80;83.80
40556;DHT22;26250;45.422;11.100;2023-08-06T08:23:27;26.80;84.00
40556;DHT22;26250;45.422;11.100;2023-08-06T08:25:55;26.90;82.70
40556;DHT22;26250;45.422;11.100;2023-08-06T08:28:22;26.70;83.40
40556;DHT22;26250;45.422;11.100;2023-08-06T08:30:49;26.70;81.70
40556;DHT22;26250;45.422;11.100;2023-08-06T08:33:16;26.70;82.00
40556;DHT22;26250;45.422;11.100;2023-08-06T08:35:43;26.80;82.40
40556;DHT22;26250;45.422;11.100;2023-08-06T08:38:10;26.90;80.10
40556;DHT22;26250;45.422;11.100;2023-08-06T08:40:46;26.80;80.60
40556;DHT22;26250;45.422;11.100;2023-08-06T08:43:16;26.80;81.80
40556;DHT22;26250;45.422;11.100;2023-08-06T08:45:44;26.80;80.00
40556;DHT22;26250;45.422;11.100;2023-08-06T08:48:13;26.80;80.60
40556;DHT22;26250;45.422;11.100;2023-08-06T08:50:42;26.80;79.20
40556;DHT22;26250;45.422;11.100;2023-08-06T08:53:11;26.80;80.10
40556;DHT22;26250;45.422;11.100;2023-08-06T08:55:39;26.80;79.00
40556;DHT22;26250;45.422;11.100;2023-08-06T08:58:07;26.90;78.80
40556;DHT22;26250;45.422;11.100;2023-08-06T09:00:34;26.90;78.20
40556;DHT22;26250;45.422;11.100;2023-08-06T09:03:04;26.90;79.40
40556;DHT22;26250;45.422;11.100;2023-08-06T09:05:33;26.90;78.30
40556;DHT22;26250;45.422;11.100;2023-08-06T09:08:03;26.90;78.10
40556;DHT22;26250;45.422;11.100;2023-08-06T09:10:31;27.00;78.60
40556;DHT22;26250;45.422;11.100;2023-08-06T09:12:59;26.90;77.40
40556;DHT22;26250;45.422;11.100;2023-08-06T09:15:29;26.90;77.40
40556;DHT22;26250;45.422;11.100;2023-08-06T09:17:56;26.90;76.70
40556;DHT22;26250;45.422;11.100;2023-08-06T09:20:24;26.80;72.80
40556;DHT22;26250;45.422;11.100;2023-08-06T09:22:53;26.70;74.10
40556;DHT22;26250;45.422;11.100;2023-08-06T09:25:24;26.80;74.10
40556;DHT22;26250;45.422;11.100;2023-08-06T09:27:52;27.00;75.40
40556;DHT22;26250;45.422;11.100;2023-08-06T09:30:33;27.10;75.30
40556;DHT22;26250;45.422;11.100;2023-08-06T09:33:00;27.00;75.90
40556;DHT22;26250;45.422;11.100;2023-08-06T09:35:29;27.00;74.00
40556;DHT22;26250;45.422;11.100;2023-08-06T09:38:07;27.00;75.40
40556;DHT22;26250;45.422;11.100;2023-08-06T09:40:35;26.90;75.90
40556;DHT22;26250;45.422;11.100;2023-08-06T09:43:03;27.00;75.20
40556;DHT22;26250;45.422;11.100;2023-08-06T09:45:34;27.10;75.30
40556;DHT22;26250;45.422;11.100;2023-08-06T09:48:05;27.20;75.50
40556;DHT22;26250;45.422;11.100;2023-08-06T09:50:34;27.20;75.90
40556;DHT22;26250;45.422;11.100;2023-08-06T09:53:08;27.30;74.30
40556;DHT22;26250;45.422;11.100;2023-08-06T09:55:37;27.30;74.80
40556;DHT22;26250;45.422;11.100;2023-08-06T09:58:04;27.30;74.50
40556;DHT22;26250;45.422;11.100;2023-08-06T10:00:33;27.40;74.40
40556;DHT22;26250;45.422;11.100;2023-08-06T10:03:06;27.40;74.90
40556;DHT22;26250;45.422;11.100;2023-08-06T10:05:35;27.40;74.30
40556;DHT22;26250;45.422;11.100;2023-08-06T10:08:03;27.40;74.60
40556;DHT22;26250;45.422;11.100;2023-08-06T10:10:32;27.40;74.10
40556;DHT22;26250;45.422;11.100;2023-08-06T10:12:59;27.40;73.00
40556;DHT22;26250;45.422;11.100;2023-08-06T10:15:30;27.40;72.50
40556;DHT22;26250;45.422;11.100;2023-08-06T10:17:59;27.40;72.70
40556;DHT22;26250;45.422;11.100;2023-08-06T10:20:35;27.40;72.80
40556;DHT22;26250;45.422;11.100;2023-08-06T10:23:04;27.40;73.80
40556;DHT22;26250;45.422;11.100;2023-08-06T10:25:39;27.40;71.50
40556;DHT22;26250;45.422;11.100;2023-08-06T10:28:10;27.30;72.10
40556;DHT22;26250;45.422;11.100;2023-08-06T10:30:42;27.30;71.90
40556;DHT22;26250;45.422;11.100;2023-08-06T10:33:10;27.30;70.70
40556;DHT22;26250;45.422;11.100;2023-08-06T10:35:47;27.30;72.00
40556;DHT22;26250;45.422;11.100;2023-08-06T10:38:22;27.40;70.20
40556;DHT22;26250;45.422;11.100;2023-08-06T10:45:54;27.30;71.30
40556;DHT22;26250;45.422;11.100;2023-08-06T10:48:44;27.30;70.40
40556;DHT22;26250;45.422;11.100;2023-08-06T10:51:13;27.30;70.50
40556;DHT22;26250;45.422;11.100;2023-08-06T10:53:43;27.40;71.70
40556;DHT22;26250;45.422;11.100;2023-08-06T10:56:14;27.40;70.70
40556;DHT22;26250;45.422;11.100;2023-08-06T10:58:42;27.40;70.30
40556;DHT22;26250;45.422;11.100;2023-08-06T11:01:10;27.50;71.40
40556;DHT22;26250;45.422;11.100;2023-08-06T11:03:38;27.60;72.10
40556;DHT22;26250;45.422;11.100;2023-08-06T11:06:09;27.70;71.70
40556;DHT22;26250;45.422;11.100;2023-08-06T11:08:38;27.70;69.50
40556;DHT22;26250;45.422;11.100;2023-08-06T11:11:08;27.80;69.70
40556;DHT22;26250;45.422;11.100;2023-08-06T11:13:37;27.70;69.60
40556;DHT22;26250;45.422;11.100;2023-08-06T11:16:08;27.80;71.10
40556;DHT22;26250;45.422;11.100;2023-08-06T11:18:35;27.90;69.70
40556;DHT22;26250;45.422;11.100;2023-08-06T11:21:02;27.90;71.60
40556;DHT22;26250;45.422;11.100;2023-08-06T11:23:30;27.90;71.80
40556;DHT22;26250;45.422;11.100;2023-08-06T11:25:57;27.90;71.80
40556;DHT22;26250;45.422;11.100;2023-08-06T11:28:25;27.90;72.20
40556;DHT22;26250;45.422;11.100;2023-08-06T11:30:52;27.90;69.40
40556;DHT22;26250;45.422;11.100;2023-08-06T11:33:24;27.70;69.40
40556;DHT22;26250;45.422;11.100;2023-08-06T11:35:53;27.70;70.10
40556;DHT22;26250;45.422;11.100;2023-08-06T11:38:21;27.90;71.20
40556;DHT22;26250;45.422;11.100;2023-08-06T11:40:48;28.00;70.90
40556;DHT22;26250;45.422;11.100;2023-08-06T11:43:15;28.10;72.00
40556;DHT22;26250;45.422;11.100;2023-08-06T11:45:42;28.20;71.50
40556;DHT22;26250;45.422;11.100;2023-08-06T11:48:09;28.30;70.30
40556;DHT22;26250;45.422;11.100;2023-08-06T11:50:38;28.40;71.20
40556;DHT22;26250;45.422;11.100;2023-08-06T11:53:11;28.40;70.70
40556;DHT22;26250;45.422;11.100;2023-08-06T11:55:39;28.40;67.70
40556;DHT22;26250;45.422;11.100;2023-08-06T11:58:06;28.40;67.20
40556;DHT22;26250;45.422;11.100;2023-08-06T12:00:33;28.40;67.90
40556;DHT22;26250;45.422;11.100;2023-08-06T12:03:00;28.50;67.40
40556;DHT22;26250;45.422;11.100;2023-08-06T12:05:32;28.60;68.30
40556;DHT22;26250;45.422;11.100;2023-08-06T12:08:03;28.60;67.60
40556;DHT22;26250;45.422;11.100;2023-08-06T12:10:32;28.60;68.80
40556;DHT22;26250;45.422;11.100;2023-08-06T12:13:00;28.80;68.90
40556;DHT22;26250;45.422;11.100;2023-08-06T12:15:27;28.70;65.20
40556;DHT22;26250;45.422;11.100;2023-08-06T12:17:56;28.70;66.20
40556;DHT22;26250;45.422;11.100;2023-08-06T12:20:23;28.70;66.30
40556;DHT22;26250;45.422;11.100;2023-08-06T12:22:51;28.80;65.90
40556;DHT22;26250;45.422;11.100;2023-08-06T12:25:18;28.90;66.30
40556;DHT22;26250;45.422;11.100;2023-08-06T12:27:46;28.90;68.10
40556;DHT22;26250;45.422;11.100;2023-08-06T12:30:13;28.80;60.20
40556;DHT22;26250;45.422;11.100;2023-08-06T12:32:40;28.60;59.10
40556;DHT22;26250;45.422;11.100;2023-08-06T12:35:08;28.30;60.30
40556;DHT22;26250;45.422;11.100;2023-08-06T12:37:35;28.30;59.80
40556;DHT22;26250;45.422;11.100;2023-08-06T12:40:06;28.00;59.10
40556;DHT22;26250;45.422;11.100;2023-08-06T12:42:53;27.80;57.40
40556;DHT22;26250;45.422;11.100;2023-08-06T12:45:20;27.60;59.00
40556;DHT22;26250;45.422;11.100;2023-08-06T12:47:48;27.40;59.50
40556;DHT22;26250;45.422;11.100;2023-08-06T12:50:16;27.40;59.60
40556;DHT22;26250;45.422;11.100;2023-08-06T12:52:45;27.30;60.20
40556;DHT22;26250;45.422;11.100;2023-08-06T12:55:12;27.10;59.70
40556;DHT22;26250;45.422;11.100;2023-08-06T12:57:39;26.90;61.30
40556;DHT22;26250;45.422;11.100;2023-08-06T13:00:27;26.90;64.30
40556;DHT22;26250;45.422;11.100;2023-08-06T13:02:54;26.80;62.90
40556;DHT22;26250;45.422;11.100;2023-08-06T13:05:21;26.80;60.70
40556;DHT22;26250;45.422;11.100;2023-08-06T13:07:48;26.80;64.50
40556;DHT22;26250;45.422;11.100;2023-08-06T13:10:18;27.00;61.80
40556;DHT22;26250;45.422;11.100;2023-08-06T13:12:45;27.00;61.80
40556;DHT22;26250;45.422;11.100;2023-08-06T13:15:12;26.80;60.30
40556;DHT22;26250;45.422;11.100;2023-08-06T13:17:41;26.80;59.00
40556;DHT22;26250;45.422;11.100;2023-08-06T13:20:08;26.70;60.70
40556;DHT22;26250;45.422;11.100;2023-08-06T13:22:35;26.60;63.80
40556;DHT22;26250;45.422;11.100;2023-08-06T13:25:02;26.40;63.30
40556;DHT22;26250;45.422;11.100;2023-08-06T13:27:29;26.30;64.40
40556;DHT22;26250;45.422;11.100;2023-08-06T13:29:56;26.40;65.30
40556;DHT22;26250;45.422;11.100;2023-08-06T13:32:23;26.50;64.50
40556;DHT22;26250;45.422;11.100;2023-08-06T13:34:50;26.50;65.50
40556;DHT22;26250;45.422;11.100;2023-08-06T13:37:17;26.40;65.60
40556;DHT22;26250;45.422;11.100;2023-08-06T13:39:44;26.40;64.60
40556;DHT22;26250;45.422;11.100;2023-08-06T13:42:11;26.30;62.80
40556;DHT22;26250;45.422;11.100;2023-08-06T13:44:38;26.40;63.40
40556;DHT22;26250;45.422;11.100;2023-08-06T13:47:05;26.40;62.00
40556;DHT22;26250;45.422;11.100;2023-08-06T13:49:32;26.30;60.40
40556;DHT22;26250;45.422;11.100;2023-08-06T13:51:59;26.40;61.30
40556;DHT22;26250;45.422;11.100;2023-08-06T13:54:45;26.40;60.90
40556;DHT22;26250;45.422;11.100;2023-08-06T13:57:12;26.30;61.60
40556;DHT22;26250;45.422;11.100;2023-08-06T13:59:42;26.30;61.90
40556;DHT22;26250;45.422;11.100;2023-08-06T14:02:10;26.50;63.00
40556;DHT22;26250;45.422;11.100;2023-08-06T14:04:39;26.50;64.80
40556;DHT22;26250;45.422;11.100;2023-08-06T14:07:06;26.70;62.50
40556;DHT22;26250;45.422;11.100;2023-08-06T14:09:33;26.70;62.00
40556;DHT22;26250;45.422;11.100;2023-08-06T14:12:01;26.80;63.60
40556;DHT22;26250;45.422;11.100;2023-08-06T14:14:28;27.00;63.30
40556;DHT22;26250;45.422;11.100;2023-08-06T14:16:55;27.10;63.10
40556;DHT22;26250;45.422;11.100;2023-08-06T14:19:23;27.30;61.10
40556;DHT22;26250;45.422;11.100;2023-08-06T14:21:50;27.20;63.30
40556;DHT22;26250;45.422;11.100;2023-08-06T14:24:18;27.30;62.00
40556;DHT22;26250;45.422;11.100;2023-08-06T14:26:45;27.30;62.00
40556;DHT22;26250;45.422;11.100;2023-08-06T14:29:12;27.40;61.00
40556;DHT22;26250;45.422;11.100;2023-08-06T14:31:41;27.50;61.20
40556;DHT22;26250;45.422;11.100;2023-08-06T14:34:08;27.60;60.90
40556;DHT22;26250;45.422;11.100;2023-08-06T14:36:34;27.70;61.20
40556;DHT22;26250;45.422;11.100;2023-08-06T14:39:02;27.70;61.30
40556;DHT22;26250;45.422;11.100;2023-08-06T14:41:29;27.80;60.60
40556;DHT22;26250;45.422;11.100;2023-08-06T14:43:56;27.80;61.20
40556;DHT22;26250;45.422;11.100;2023-08-06T14:46:23;27.80;62.00
40556;DHT22;26250;45.422;11.100;2023-08-06T14:48:50;27.90;61.50
40556;DHT22;26250;45.422;11.100;2023-08-06T14:51:17;27.90;60.20
40556;DHT22;26250;45.422;11.100;2023-08-06T14:53:46;27.90;61.00
40556;DHT22;26250;45.422;11.100;2023-08-06T14:56:13;27.90;62.90
40556;DHT22;26250;45.422;11.100;2023-08-06T14:58:41;28.00;62.40
40556;DHT22;26250;45.422;11.100;2023-08-06T15:01:08;28.00;62.20
40556;DHT22;26250;45.422;11.100;2023-08-06T15:03:36;28.00;62.80
40556;DHT22;26250;45.422;11.100;2023-08-06T15:06:03;28.10;63.10
40556;DHT22;26250;45.422;11.100;2023-08-06T15:08:29;28.10;62.30
40556;DHT22;26250;45.422;11.100;2023-08-06T15:10:56;28.20;62.90
40556;DHT22;26250;45.422;11.100;2023-08-06T15:13:23;28.30;61.80
40556;DHT22;26250;45.422;11.100;2023-08-06T15:15:50;28.20;59.50
40556;DHT22;26250;45.422;11.100;2023-08-06T15:18:17;28.30;60.90
40556;DHT22;26250;45.422;11.100;2023-08-06T15:20:46;28.20;61.00
40556;DHT22;26250;45.422;11.100;2023-08-06T15:23:13;28.10;61.10
40556;DHT22;26250;45.422;11.100;2023-08-06T15:25:40;28.00;62.20
40556;DHT22;26250;45.422;11.100;2023-08-06T15:28:07;28.00;63.40
40556;DHT22;26250;45.422;11.100;2023-08-06T15:30:34;27.80;63.90
40556;DHT22;26250;45.422;11.100;2023-08-06T15:33:01;27.70;64.70
40556;DHT22;26250;45.422;11.100;2023-08-06T15:35:29;27.60;66.30
40556;DHT22;26250;45.422;11.100;2023-08-06T15:37:56;27.60;67.00
40556;DHT22;26250;45.422;11.100;2023-08-06T15:40:23;27.50;66.80
40556;DHT22;26250;45.422;11.100;2023-08-06T15:42:50;27.50;68.40
40556;DHT22;26250;45.422;11.100;2023-08-06T15:45:17;27.60;67.20
40556;DHT22;26250;45.422;11.100;2023-08-06T15:47:46;27.60;68.10
40556;DHT22;26250;45.422;11.100;2023-08-06T15:50:13;27.70;66.70
40556;DHT22;26250;45.422;11.100;2023-08-06T15:52:40;27.70;67.80
40556;DHT22;26250;45.422;11.100;2023-08-06T15:55:08;27.70;66.60
40556;DHT22;26250;45.422;11.100;2023-08-06T15:57:35;27.60;63.70
40556;DHT22;26250;45.422;11.100;2023-08-06T16:00:03;27.60;61.80
40556;DHT22;26250;45.422;11.100;2023-08-06T16:02:39;27.60;63.50
40556;DHT22;26250;45.422;11.100;2023-08-06T16:05:06;27.60;63.50
40556;DHT22;26250;45.422;11.100;2023-08-06T16:07:33;27.60;64.30
40556;DHT22;26250;45.422;11.100;2023-08-06T16:10:02;27.70;64.70
40556;DHT22;26250;45.422;11.100;2023-08-06T16:12:29;27.60;65.30
40556;DHT22;26250;45.422;11.100;2023-08-06T16:14:56;27.50;65.60
40556;DHT22;26250;45.422;11.100;2023-08-06T16:17:23;27.50;65.40
40556;DHT22;26250;45.422;11.100;2023-08-06T16:19:50;27.40;65.40
40556;DHT22;26250;45.422;11.100;2023-08-06T16:22:20;27.40;66.30
40556;DHT22;26250;45.422;11.100;2023-08-06T16:24:47;27.40;66.40
40556;DHT22;26250;45.422;11.100;2023-08-06T16:27:15;27.30;66.40
40556;DHT22;26250;45.422;11.100;2023-08-06T16:29:42;27.20;66.10
40556;DHT22;26250;45.422;11.100;2023-08-06T16:32:11;27.20;65.50
40556;DHT22;26250;45.422;11.100;2023-08-06T16:34:38;27.20;65.60
40556;DHT22;26250;45.422;11.100;2023-08-06T16:37:05;27.20;64.70
40556;DHT22;26250;45.422;11.100;2023-08-06T16:39:32;27.20;64.30
40556;DHT22;26250;45.422;11.100;2023-08-06T16:41:59;27.30;65.00
40556;DHT22;26250;45.422;11.100;2023-08-06T16:44:30;27.30;64.10
40556;DHT22;26250;45.422;11.100;2023-08-06T16:46:58;27.30;63.60
40556;DHT22;26250;45.422;11.100;2023-08-06T16:49:26;27.30;63.70
40556;DHT22;26250;45.422;11.100;2023-08-06T16:51:53;27.30;64.10
40556;DHT22;26250;45.422;11.100;2023-08-06T16:54:19;27.30;62.40
40556;DHT22;26250;45.422;11.100;2023-08-06T16:56:46;27.20;62.70
40556;DHT22;26250;45.422;11.100;2023-08-06T16:59:13;27.20;62.70
40556;DHT22;26250;45.422;11.100;2023-08-06T17:01:42;27.30;62.80
40556;DHT22;26250;45.422;11.100;2023-08-06T17:04:09;27.30;63.50
40556;DHT22;26250;45.422;11.100;2023-08-06T17:06:38;27.40;63.40
40556;DHT22;26250;45.422;11.100;2023-08-06T17:09:05;27.30;62.60
40556;DHT22;26250;45.422;11.100;2023-08-06T17:11:32;27.30;62.80
40556;DHT22;26250;45.422;11.100;2023-08-06T17:13:59;27.20;63.50
40556;DHT22;26250;45.422;11.100;2023-08-06T17:16:26;27.10;62.40
40556;DHT22;26250;45.422;11.100;2023-08-06T17:18:53;27.10;62.70
40556;DHT22;26250;45.422;11.100;2023-08-06T17:21:20;27.10;61.70
40556;DHT22;26250;45.422;11.100;2023-08-06T17:23:47;27.20;62.20
40556;DHT22;26250;45.422;11.100;2023-08-06T17:26:14;27.20;61.80
40556;DHT22;26250;45.422;11.100;2023-08-06T17:28:41;27.20;59.90
40556;DHT22;26250;45.422;11.100;2023-08-06T17:31:08;27.20;61.80
40556;DHT22;26250;45.422;11.100;2023-08-06T17:33:37;27.20;63.10
40556;DHT22;26250;45.422;11.100;2023-08-06T17:36:04;27.10;62.80
40556;DHT22;26250;45.422;11.100;2023-08-06T17:38:31;27.10;62.90
40556;DHT22;26250;45.422;11.100;2023-08-06T17:40:58;27.20;62.30
40556;DHT22;26250;45.422;11.100;2023-08-06T17:43:26;27.20;62.20
40556;DHT22;26250;45.422;11.100;2023-08-06T17:45:53;27.20;62.60
40556;DHT22;26250;45.422;11.100;2023-08-06T17:48:22;27.10;62.20
40556;DHT22;26250;45.422;11.100;2023-08-06T17:50:50;27.10;62.40
40556;DHT22;26250;45.422;11.100;2023-08-06T17:53:16;27.00;62.00
40556;DHT22;26250;45.422;11.100;2023-08-06T17:55:43;27.00;62.10
40556;DHT22;26250;45.422;11.100;2023-08-06T17:58:10;26.90;62.40
40556;DHT22;26250;45.422;11.100;2023-08-06T18:00:37;26.90;63.30
40556;DHT22;26250;45.422;11.100;2023-08-06T18:03:04;26.80;62.70
40556;DHT22;26250;45.422;11.100;2023-08-06T18:05:31;26.80;63.50
40556;DHT22;26250;45.422;11.100;2023-08-06T18:07:59;26.70;63.20
40556;DHT22;26250;45.422;11.100;2023-08-06T18:10:26;26.70;63.20
40556;DHT22;26250;45.422;11.100;2023-08-06T18:12:56;26.60;65.70
40556;DHT22;26250;45.422;11.100;2023-08-06T18:15:23;26.50;66.80
40556;DHT22;26250;45.422;11.100;2023-08-06T18:17:50;26.30;67.50
40556;DHT22;26250;45.422;11.100;2023-08-06T18:20:17;26.20;67.40
40556;DHT22;26250;45.422;11.100;2023-08-06T18:22:44;26.10;68.00
40556;DHT22;26250;45.422;11.100;2023-08-06T18:25:11;25.90;68.70
40556;DHT22;26250;45.422;11.100;2023-08-06T18:27:38;25.90;68.40
40556;DHT22;26250;45.422;11.100;2023-08-06T18:30:10;25.70;68.80
40556;DHT22;26250;45.422;11.100;2023-08-06T18:32:39;25.60;69.80
40556;DHT22;26250;45.422;11.100;2023-08-06T18:35:07;25.50;70.00
40556;DHT22;26250;45.422;11.100;2023-08-06T18:37:34;25.30;70.70
40556;DHT22;26250;45.422;11.100;2023-08-06T18:40:07;25.30;70.50
40556;DHT22;26250;45.422;11.100;2023-08-06T18:42:35;25.20;71.20
40556;DHT22;26250;45.422;11.100;2023-08-06T18:45:06;25.00;72.00
40556;DHT22;26250;45.422;11.100;2023-08-06T18:47:33;24.90;72.20
40556;DHT22;26250;45.422;11.100;2023-08-06T18:50:01;24.80;71.90
40556;DHT22;26250;45.422;11.100;2023-08-06T18:52:28;24.80;72.40
40556;DHT22;26250;45.422;11.100;2023-08-06T18:54:55;24.80;72.40
40556;DHT22;26250;45.422;11.100;2023-08-06T18:57:22;24.80;72.90
40556;DHT22;26250;45.422;11.100;2023-08-06T18:59:49;24.80;72.80
40556;DHT22;26250;45.422;11.100;2023-08-06T19:02:18;24.80;73.10
40556;DHT22;26250;45.422;11.100;2023-08-06T19:04:45;24.80;73.70
40556;DHT22;26250;45.422;11.100;2023-08-06T19:07:14;24.70;74.20
40556;DHT22;26250;45.422;11.100;2023-08-06T19:09:41;24.70;74.20
40556;DHT22;26250;45.422;11.100;2023-08-06T19:12:13;24.70;74.20
40556;DHT22;26250;45.422;11.100;2023-08-06T19:14:47;24.60;72.30
40556;DHT22;26250;45.422;11.100;2023-08-06T19:17:21;24.50;73.20
40556;DHT22;26250;45.422;11.100;2023-08-06T19:19:48;24.50;72.10
40556;DHT22;26250;45.422;11.100;2023-08-06T19:22:15;24.40;70.60
40556;DHT22;26250;45.422;11.100;2023-08-06T19:24:42;24.40;69.80
40556;DHT22;26250;45.422;11.100;2023-08-06T19:27:09;24.40;69.40
40556;DHT22;26250;45.422;11.100;2023-08-06T19:29:36;24.30;69.70
40556;DHT22;26250;45.422;11.100;2023-08-06T19:32:04;24.20;69.70
40556;DHT22;26250;45.422;11.100;2023-08-06T19:34:33;24.30;70.10
40556;DHT22;26250;45.422;11.100;2023-08-06T19:37:00;24.20;70.60
40556;DHT22;26250;45.422;11.100;2023-08-06T19:39:27;24.20;71.20
40556;DHT22;26250;45.422;11.100;2023-08-06T19:41:54;24.10;72.00
40556;DHT22;26250;45.422;11.100;2023-08-06T19:44:22;24.00;72.50
40556;DHT22;26250;45.422;11.100;2023-08-06T19:46:49;23.90;72.70
40556;DHT22;26250;45.422;11.100;2023-08-06T19:49:16;23.80;73.20
40556;DHT22;26250;45.422;11.100;2023-08-06T19:51:43;23.70;73.60
40556;DHT22;26250;45.422;11.100;2023-08-06T19:54:10;23.60;73.60
40556;DHT22;26250;45.422;11.100;2023-08-06T19:56:37;23.60;73.80
40556;DHT22;26250;45.422;11.100;2023-08-06T19:59:04;23.50;73.80
40556;DHT22;26250;45.422;11.100;2023-08-06T20:01:31;23.40;74.90
40556;DHT22;26250;45.422;11.100;2023-08-06T20:03:58;23.40;74.20
40556;DHT22;26250;45.422;11.100;2023-08-06T20:06:25;23.40;74.30
40556;DHT22;26250;45.422;11.100;2023-08-06T20:08:57;23.30;74.40
40556;DHT22;26250;45.422;11.100;2023-08-06T20:11:24;23.10;74.80
40556;DHT22;26250;45.422;11.100;2023-08-06T20:13:51;23.10;74.70
40556;DHT22;26250;45.422;11.100;2023-08-06T20:16:18;23.10;75.50
40556;DHT22;26250;45.422;11.100;2023-08-06T20:18:45;23.10;75.10
40556;DHT22;26250;45.422;11.100;2023-08-06T20:21:12;23.00;74.90
40556;DHT22;26250;45.422;11.100;2023-08-06T20:23:41;22.90;75.70
40556;DHT22;26250;45.422;11.100;2023-08-06T20:26:08;22.90;75.40
40556;DHT22;26250;45.422;11.100;2023-08-06T20:28:38;22.70;76.10
40556;DHT22;26250;45.422;11.100;2023-08-06T20:31:05;22.70;76.40
40556;DHT22;26250;45.422;11.100;2023-08-06T20:33:32;22.80;76.10
40556;DHT22;26250;45.422;11.100;2023-08-06T20:36:00;22.70;76.50
40556;DHT22;26250;45.422;11.100;2023-08-06T20:38:27;22.70;76.80
40556;DHT22;26250;45.422;11.100;2023-08-06T20:40:57;22.60;77.30
40556;DHT22;26250;45.422;11.100;2023-08-06T20:43:24;22.60;77.70
40556;DHT22;26250;45.422;11.100;2023-08-06T20:45:58;22.60;77.60
40556;DHT22;26250;45.422;11.100;2023-08-06T20:48:27;22.60;77.90
40556;DHT22;26250;45.422;11.100;2023-08-06T20:50:53;22.60;78.50
40556;DHT22;26250;45.422;11.100;2023-08-06T20:53:20;22.60;79.30
40556;DHT22;26250;45.422;11.100;2023-08-06T20:56:02;22.60;78.20
40556;DHT22;26250;45.422;11.100;2023-08-06T20:58:31;22.60;78.50
40556;DHT22;26250;45.422;11.100;2023-08-06T21:00:59;22.60;79.30
40556;DHT22;26250;45.422;11.100;2023-08-06T21:03:27;22.60;79.00
40556;DHT22;26250;45.422;11.100;2023-08-06T21:06:12;22.60;79.20
40556;DHT22;26250;45.422;11.100;2023-08-06T21:08:42;22.60;79.70
40556;DHT22;26250;45.422;11.100;2023-08-06T21:11:09;22.70;79.50
40556;DHT22;26250;45.422;11.100;2023-08-06T21:13:41;22.70;79.60
40556;DHT22;26250;45.422;11.100;2023-08-06T21:16:10;22.70;79.40
40556;DHT22;26250;45.422;11.100;2023-08-06T21:18:37;22.70;79.40
40556;DHT22;26250;45.422;11.100;2023-08-06T21:21:07;22.70;79.40
40556;DHT22;26250;45.422;11.100;2023-08-06T21:23:34;22.60;79.50
40556;DHT22;26250;45.422;11.100;2023-08-06T21:26:02;22.60;79.60
40556;DHT22;26250;45.422;11.100;2023-08-06T21:28:30;22.50;80.20
40556;DHT22;26250;45.422;11.100;2023-08-06T21:31:15;22.50;80.60
40556;DHT22;26250;45.422;11.100;2023-08-06T21:33:43;22.50;80.50
40556;DHT22;26250;45.422;11.100;2023-08-06T21:36:12;22.40;81.10
40556;DHT22;26250;45.422;11.100;2023-08-06T21:38:40;22.40;80.90
40556;DHT22;26250;45.422;11.100;2023-08-06T21:41:12;22.40;81.60
40556;DHT22;26250;45.422;11.100;2023-08-06T21:43:43;22.50;81.20
40556;DHT22;26250;45.422;11.100;2023-08-06T21:46:13;22.50;81.50
40556;DHT22;26250;45.422;11.100;2023-08-06T21:48:43;22.60;81.20
40556;DHT22;26250;45.422;11.100;2023-08-06T21:51:13;22.60;81.10
40556;DHT22;26250;45.422;11.100;2023-08-06T21:53:40;22.60;80.80
40556;DHT22;26250;45.422;11.100;2023-08-06T21:56:09;22.70;80.50
40556;DHT22;26250;45.422;11.100;2023-08-06T22:01:09;22.70;80.60
40556;DHT22;26250;45.422;11.100;2023-08-06T22:03:38;22.70;80.30
40556;DHT22;26250;45.422;11.100;2023-08-06T22:06:06;22.70;80.60
40556;DHT22;26250;45.422;11.100;2023-08-06T22:08:34;22.50;80.40
40556;DHT22;26250;45.422;11.100;2023-08-06T22:11:02;22.60;80.50
40556;DHT22;26250;45.422;11.100;2023-08-06T22:13:30;22.60;80.20
40556;DHT22;26250;45.422;11.100;2023-08-06T22:15:57;22.60;80.20
40556;DHT22;26250;45.422;11.100;2023-08-06T22:18:24;22.70;80.00
40556;DHT22;26250;45.422;11.100;2023-08-06T22:20:55;22.80;79.60
40556;DHT22;26250;45.422;11.100;2023-08-06T22:23:23;22.80;79.10
40556;DHT22;26250;45.422;11.100;2023-08-06T22:25:51;22.90;79.40
40556;DHT22;26250;45.422;11.100;2023-08-06T22:28:23;22.90;79.30
40556;DHT22;26250;45.422;11.100;2023-08-06T22:30:50;22.80;79.40
40556;DHT22;26250;45.422;11.100;2023-08-06T22:33:17;22.70;79.10
40556;DHT22;26250;45.422;11.100;2023-08-06T22:35:45;22.70;78.90
40556;DHT22;26250;45.422;11.100;2023-08-06T22:38:12;22.60;79.00
40556;DHT22;26250;45.422;11.100;2023-08-06T22:40:39;22.60;79.60
40556;DHT22;26250;45.422;11.100;2023-08-06T22:43:06;22.50;79.40
40556;DHT22;26250;45.422;11.100;2023-08-06T22:45:33;22.50;79.80
40556;DHT22;26250;45.422;11.100;2023-08-06T22:48:00;22.50;79.30
40556;DHT22;26250;45.422;11.100;2023-08-06T22:50:27;22.40;80.00
40556;DHT22;26250;45.422;11.100;2023-08-06T22:52:54;22.30;80.50
40556;DHT22;26250;45.422;11.100;2023-08-06T22:55:21;22.40;79.60
40556;DHT22;26250;45.422;11.100;2023-08-06T22:58:08;22.40;79.50
40556;DHT22;26250;45.422;11.100;2023-08-06T23:00:35;22.40;79.20
40556;DHT22;26250;45.422;11.100;2023-08-06T23:03:02;22.40;79.50
40556;DHT22;26250;45.422;11.100;2023-08-06T23:05:38;22.50;79.50
40556;DHT22;26250;45.422;11.100;2023-08-06T23:08:06;22.50;79.50
40556;DHT22;26250;45.422;11.100;2023-08-06T23:10:33;22.60;80.70
40556;DHT22;26250;45.422;11.100;2023-08-06T23:13:00;22.60;81.20
40556;DHT22;26250;45.422;11.100;2023-08-06T23:15:27;22.50;81.70
40556;DHT22;26250;45.422;11.100;2023-08-06T23:17:56;22.40;81.30
40556;DHT22;26250;45.422;11.100;2023-08-06T23:20:23;22.50;80.60
40556;DHT22;26250;45.422;11.100;2023-08-06T23:22:50;22.50;81.10
40556;DHT22;26250;45.422;11.100;2023-08-06T23:25:17;22.50;80.40
40556;DHT22;26250;45.422;11.100;2023-08-06T23:27:44;22.60;80.10
40556;DHT22;26250;45.422;11.100;2023-08-06T23:30:11;22.50;80.20
40556;DHT22;26250;45.422;11.100;2023-08-06T23:32:40;22.30;80.90
40556;DHT22;26250;45.422;11.100;2023-08-06T23:35:08;22.20;81.30
40556;DHT22;26250;45.422;11.100;2023-08-06T23:37:35;22.00;82.80
40556;DHT22;26250;45.422;11.100;2023-08-06T23:40:02;22.00;82.60
40556;DHT22;26250;45.422;11.100;2023-08-06T23:42:30;22.00;82.70